sensor_id;sensor_type;location;lat;lon;timestamp;P1;durP1;ratioP1;P2;durP2;ratioP2
30068;SDS011;16894;49.456;10.644;2023-05-19T00:01:05;65.43;;;61.50;;
30068;SDS011;16894;49.456;10.644;2023-05-19T00:03:32;81.00;;;76.20;;
30068;SDS011;16894;49.456;10.644;2023-05-19T00:05:59;60.95;;;57.20;;
30068;SDS011;16894;49.456;10.644;2023-05-19T00:08:27;37.17;;;34.97;;
30068;SDS011;16894;49.456;10.644;2023-05-19T00:10:56;33.03;;;30.92;;
30068;SDS011;16894;49.456;10.644;2023-05-19T00:15:48;30.42;;;28.52;;
30068;SDS011;16894;49.456;10.644;2023-05-19T00:18:15;29.33;;;27.48;;
30068;SDS011;16894;49.456;10.644;2023-05-19T00:20:41;33.40;;;31.38;;
30068;SDS011;16894;49.456;10.644;2023-05-19T00:23:07;32.15;;;30.05;;
30068;SDS011;16894;49.456;10.644;2023-05-19T00:25:33;33.13;;;31.02;;
30068;SDS011;16894;49.456;10.644;2023-05-19T00:27:59;33.50;;;31.57;;
30068;SDS011;16894;49.456;10.644;2023-05-19T00:30:26;49.40;;;46.28;;
30068;SDS011;16894;49.456;10.644;2023-05-19T00:32:52;60.85;;;57.20;;
30068;SDS011;16894;49.456;10.644;2023-05-19T00:35:17;88.30;;;82.63;;
30068;SDS011;16894;49.456;10.644;2023-05-19T00:37:44;82.00;;;76.88;;
30068;SDS011;16894;49.456;10.644;2023-05-19T00:40:09;74.03;;;69.33;;
30068;SDS011;16894;49.456;10.644;2023-05-19T00:42:35;74.13;;;69.70;;
30068;SDS011;16894;49.456;10.644;2023-05-19T00:45:01;72.37;;;68.07;;
30068;SDS011;16894;49.456;10.644;2023-05-19T00:47:26;67.07;;;62.90;;
30068;SDS011;16894;49.456;10.644;2023-05-19T00:49:52;67.20;;;63.17;;
30068;SDS011;16894;49.456;10.644;2023-05-19T00:52:18;50.80;;;47.80;;
30068;SDS011;16894;49.456;10.644;2023-05-19T00:54:43;53.77;;;50.50;;
30068;SDS011;16894;49.456;10.644;2023-05-19T00:59:36;86.55;;;81.43;;
30068;SDS011;16894;49.456;10.644;2023-05-19T01:02:01;57.70;;;54.17;;
30068;SDS011;16894;49.456;10.644;2023-05-19T01:04:27;64.55;;;60.38;;
30068;SDS011;16894;49.456;10.644;2023-05-19T01:06:54;77.88;;;73.05;;
30068;SDS011;16894;49.456;10.644;2023-05-19T01:09:21;71.35;;;67.07;;
30068;SDS011;16894;49.456;10.644;2023-05-19T01:11:47;76.65;;;72.10;;
30068;SDS011;16894;49.456;10.644;2023-05-19T01:14:14;71.63;;;67.38;;
30068;SDS011;16894;49.456;10.644;2023-05-19T01:22:37;75.15;;;70.65;;
30068;SDS011;16894;49.456;10.644;2023-05-19T01:31:10;19.55;;;18.23;;
30068;SDS011;16894;49.456;10.644;2023-05-19T01:33:36;21.50;;;20.17;;
30068;SDS011;16894;49.456;10.644;2023-05-19T01:36:05;21.85;;;20.48;;
30068;SDS011;16894;49.456;10.644;2023-05-19T01:38:32;20.60;;;19.30;;
30068;SDS011;16894;49.456;10.644;2023-05-19T01:43:25;31.25;;;29.35;;
30068;SDS011;16894;49.456;10.644;2023-05-19T01:45:52;22.13;;;20.77;;
30068;SDS011;16894;49.456;10.644;2023-05-19T01:48:19;23.67;;;22.15;;
30068;SDS011;16894;49.456;10.644;2023-05-19T01:50:46;24.15;;;22.55;;
30068;SDS011;16894;49.456;10.644;2023-05-19T01:53:12;24.43;;;23.00;;
30068;SDS011;16894;49.456;10.644;2023-05-19T01:55:42;24.60;;;22.97;;
30068;SDS011;16894;49.456;10.644;2023-05-19T02:05:57;26.25;;;24.60;;
30068;SDS011;16894;49.456;10.644;2023-05-19T02:08:43;26.25;;;24.48;;
30068;SDS011;16894;49.456;10.644;2023-05-19T02:11:22;27.35;;;25.20;;
30068;SDS011;16894;49.456;10.644;2023-05-19T02:13:54;72.55;;;68.10;;
30068;SDS011;16894;49.456;10.644;2023-05-19T02:16:20;29.95;;;27.98;;
30068;SDS011;16894;49.456;10.644;2023-05-19T02:18:51;34.15;;;31.85;;
30068;SDS011;16894;49.456;10.644;2023-05-19T02:21:18;36.28;;;34.03;;
30068;SDS011;16894;49.456;10.644;2023-05-19T02:23:44;34.50;;;32.47;;
30068;SDS011;16894;49.456;10.644;2023-05-19T02:26:09;44.10;;;41.33;;
30068;SDS011;16894;49.456;10.644;2023-05-19T02:28:35;44.23;;;41.53;;
30068;SDS011;16894;49.456;10.644;2023-05-19T02:31:01;37.83;;;35.37;;
30068;SDS011;16894;49.456;10.644;2023-05-19T02:33:29;41.60;;;38.97;;
30068;SDS011;16894;49.456;10.644;2023-05-19T02:35:55;54.88;;;51.63;;
30068;SDS011;16894;49.456;10.644;2023-05-19T02:38:21;75.00;;;69.97;;
30068;SDS011;16894;49.456;10.644;2023-05-19T02:40:47;117.47;;;110.40;;
30068;SDS011;16894;49.456;10.644;2023-05-19T02:43:12;136.67;;;128.40;;
30068;SDS011;16894;49.456;10.644;2023-05-19T02:45:38;130.93;;;123.03;;
30068;SDS011;16894;49.456;10.644;2023-05-19T02:48:04;194.20;;;182.07;;
30068;SDS011;16894;49.456;10.644;2023-05-19T02:50:29;205.00;;;192.60;;
30068;SDS011;16894;49.456;10.644;2023-05-19T02:52:55;201.40;;;189.50;;
30068;SDS011;16894;49.456;10.644;2023-05-19T02:55:20;110.13;;;103.40;;
30068;SDS011;16894;49.456;10.644;2023-05-19T02:57:46;113.80;;;107.00;;
30068;SDS011;16894;49.456;10.644;2023-05-19T03:00:12;65.93;;;61.73;;
30068;SDS011;16894;49.456;10.644;2023-05-19T03:02:38;74.53;;;69.85;;
30068;SDS011;16894;49.456;10.644;2023-05-19T03:05:05;66.82;;;62.28;;
30068;SDS011;16894;49.456;10.644;2023-05-19T03:07:32;53.35;;;50.10;;
30068;SDS011;16894;49.456;10.644;2023-05-19T03:09:57;56.83;;;53.43;;
30068;SDS011;16894;49.456;10.644;2023-05-19T03:12:23;35.93;;;33.73;;
30068;SDS011;16894;49.456;10.644;2023-05-19T03:14:49;34.53;;;32.50;;
30068;SDS011;16894;49.456;10.644;2023-05-19T03:17:15;38.35;;;35.90;;
30068;SDS011;16894;49.456;10.644;2023-05-19T03:19:40;43.30;;;40.43;;
30068;SDS011;16894;49.456;10.644;2023-05-19T03:24:32;55.53;;;52.17;;
30068;SDS011;16894;49.456;10.644;2023-05-19T03:26:58;32.27;;;30.27;;
30068;SDS011;16894;49.456;10.644;2023-05-19T03:29:24;26.80;;;25.20;;
30068;SDS011;16894;49.456;10.644;2023-05-19T03:31:49;28.10;;;26.40;;
30068;SDS011;16894;49.456;10.644;2023-05-19T03:34:16;24.27;;;22.60;;
30068;SDS011;16894;49.456;10.644;2023-05-19T03:36:41;59.17;;;55.47;;
30068;SDS011;16894;49.456;10.644;2023-05-19T03:39:08;17.52;;;16.15;;
30068;SDS011;16894;49.456;10.644;2023-05-19T03:41:35;15.57;;;14.13;;
30068;SDS011;16894;49.456;10.644;2023-05-19T03:44:00;12.37;;;11.33;;
30068;SDS011;16894;49.456;10.644;2023-05-19T03:46:26;9.77;;;9.07;;
30068;SDS011;16894;49.456;10.644;2023-05-19T03:48:52;9.63;;;9.03;;
30068;SDS011;16894;49.456;10.644;2023-05-19T03:51:17;11.13;;;10.07;;
30068;SDS011;16894;49.456;10.644;2023-05-19T03:53:43;10.43;;;9.83;;
30068;SDS011;16894;49.456;10.644;2023-05-19T03:58:37;13.88;;;12.75;;
30068;SDS011;16894;49.456;10.644;2023-05-19T04:01:04;10.70;;;9.98;;
30068;SDS011;16894;49.456;10.644;2023-05-19T04:03:30;9.50;;;8.90;;
30068;SDS011;16894;49.456;10.644;2023-05-19T04:05:56;9.80;;;8.90;;
30068;SDS011;16894;49.456;10.644;2023-05-19T04:08:21;9.10;;;8.47;;
30068;SDS011;16894;49.456;10.644;2023-05-19T04:10:47;10.30;;;9.40;;
30068;SDS011;16894;49.456;10.644;2023-05-19T04:13:12;11.07;;;10.00;;
30068;SDS011;16894;49.456;10.644;2023-05-19T04:15:38;11.60;;;10.53;;
30068;SDS011;16894;49.456;10.644;2023-05-19T04:18:05;10.68;;;9.98;;
30068;SDS011;16894;49.456;10.644;2023-05-19T04:20:30;8.93;;;8.43;;
30068;SDS011;16894;49.456;10.644;2023-05-19T04:22:56;9.07;;;8.37;;
30068;SDS011;16894;49.456;10.644;2023-05-19T04:25:22;11.63;;;10.63;;
30068;SDS011;16894;49.456;10.644;2023-05-19T04:27:49;64.22;;;59.53;;
30068;SDS011;16894;49.456;10.644;2023-05-19T04:30:14;24.43;;;22.83;;
30068;SDS011;16894;49.456;10.644;2023-05-19T04:32:46;18.58;;;17.23;;
30068;SDS011;16894;49.456;10.644;2023-05-19T04:35:14;60.08;;;56.17;;
30068;SDS011;16894;49.456;10.644;2023-05-19T04:37:41;20.00;;;18.80;;
30068;SDS011;16894;49.456;10.644;2023-05-19T04:40:10;18.45;;;17.08;;
30068;SDS011;16894;49.456;10.644;2023-05-19T04:42:36;30.48;;;28.52;;
30068;SDS011;16894;49.456;10.644;2023-05-19T04:45:05;20.40;;;19.13;;
30068;SDS011;16894;49.456;10.644;2023-05-19T04:47:33;14.70;;;13.68;;
30068;SDS011;16894;49.456;10.644;2023-05-19T04:50:02;20.73;;;19.40;;
30068;SDS011;16894;49.456;10.644;2023-05-19T04:52:29;14.05;;;13.13;;
30068;SDS011;16894;49.456;10.644;2023-05-19T04:54:55;16.10;;;14.07;;
30068;SDS011;16894;49.456;10.644;2023-05-19T04:57:21;13.77;;;12.80;;
30068;SDS011;16894;49.456;10.644;2023-05-19T04:59:46;15.70;;;14.70;;
30068;SDS011;16894;49.456;10.644;2023-05-19T05:02:12;11.83;;;11.13;;
30068;SDS011;16894;49.456;10.644;2023-05-19T05:04:37;32.10;;;30.00;;
30068;SDS011;16894;49.456;10.644;2023-05-19T05:07:06;14.95;;;13.88;;
30068;SDS011;16894;49.456;10.644;2023-05-19T05:09:32;30.70;;;28.88;;
30068;SDS011;16894;49.456;10.644;2023-05-19T05:11:58;19.67;;;18.42;;
30068;SDS011;16894;49.456;10.644;2023-05-19T05:14:25;21.85;;;20.50;;
30068;SDS011;16894;49.456;10.644;2023-05-19T05:16:51;16.33;;;15.20;;
30068;SDS011;16894;49.456;10.644;2023-05-19T05:19:17;11.48;;;10.75;;
30068;SDS011;16894;49.456;10.644;2023-05-19T05:21:43;13.02;;;11.68;;
30068;SDS011;16894;49.456;10.644;2023-05-19T05:24:10;10.55;;;9.85;;
30068;SDS011;16894;49.456;10.644;2023-05-19T05:26:36;12.50;;;11.70;;
30068;SDS011;16894;49.456;10.644;2023-05-19T05:29:02;13.52;;;12.52;;
30068;SDS011;16894;49.456;10.644;2023-05-19T05:31:28;16.77;;;15.57;;
30068;SDS011;16894;49.456;10.644;2023-05-19T05:33:54;23.23;;;21.38;;
30068;SDS011;16894;49.456;10.644;2023-05-19T05:36:19;18.63;;;17.08;;
30068;SDS011;16894;49.456;10.644;2023-05-19T05:38:45;50.05;;;46.58;;
30068;SDS011;16894;49.456;10.644;2023-05-19T05:41:11;337.87;;;314.67;;
30068;SDS011;16894;49.456;10.644;2023-05-19T05:43:36;115.30;;;107.83;;
30068;SDS011;16894;49.456;10.644;2023-05-19T05:46:02;124.80;;;117.30;;
30068;SDS011;16894;49.456;10.644;2023-05-19T05:48:28;265.07;;;249.03;;
30068;SDS011;16894;49.456;10.644;2023-05-19T05:50:54;445.00;;;415.92;;
30068;SDS011;16894;49.456;10.644;2023-05-19T05:53:21;427.25;;;401.00;;
30068;SDS011;16894;49.456;10.644;2023-05-19T05:55:49;561.60;;;523.05;;
30068;SDS011;16894;49.456;10.644;2023-05-19T05:58:15;657.38;;;608.60;;
30068;SDS011;16894;49.456;10.644;2023-05-19T06:00:41;592.97;;;551.57;;
30068;SDS011;16894;49.456;10.644;2023-05-19T06:03:07;707.78;;;654.28;;
30068;SDS011;16894;49.456;10.644;2023-05-19T06:05:34;926.15;;;847.75;;
30068;SDS011;16894;49.456;10.644;2023-05-19T06:08:00;851.58;;;783.47;;
30068;SDS011;16894;49.456;10.644;2023-05-19T06:10:29;831.00;;;765.53;;
30068;SDS011;16894;49.456;10.644;2023-05-19T06:12:55;839.08;;;772.20;;
30068;SDS011;16894;49.456;10.644;2023-05-19T06:15:21;866.70;;;795.90;;
30068;SDS011;16894;49.456;10.644;2023-05-19T06:17:47;786.77;;;725.80;;
30068;SDS011;16894;49.456;10.644;2023-05-19T06:20:12;781.67;;;721.47;;
30068;SDS011;16894;49.456;10.644;2023-05-19T06:22:38;790.83;;;728.40;;
30068;SDS011;16894;49.456;10.644;2023-05-19T06:25:05;745.50;;;687.67;;
30068;SDS011;16894;49.456;10.644;2023-05-19T06:27:33;1999.90;;;999.90;;
30068;SDS011;16894;49.456;10.644;2023-05-19T06:29:59;1999.90;;;999.90;;
30068;SDS011;16894;49.456;10.644;2023-05-19T06:32:24;1999.90;;;999.90;;
30068;SDS011;16894;49.456;10.644;2023-05-19T06:34:50;1999.90;;;999.90;;
30068;SDS011;16894;49.456;10.644;2023-05-19T06:37:21;1999.90;;;999.90;;
30068;SDS011;16894;49.456;10.644;2023-05-19T06:39:53;1999.90;;;999.90;;
30068;SDS011;16894;49.456;10.644;2023-05-19T06:42:19;1999.90;;;999.90;;
30068;SDS011;16894;49.456;10.644;2023-05-19T06:44:50;1999.90;;;999.90;;
30068;SDS011;16894;49.456;10.644;2023-05-19T06:47:16;1999.90;;;999.90;;
30068;SDS011;16894;49.456;10.644;2023-05-19T06:49:43;1999.90;;;999.90;;
30068;SDS011;16894;49.456;10.644;2023-05-19T06:52:14;1999.90;;;999.90;;
30068;SDS011;16894;49.456;10.644;2023-05-19T06:54:40;1999.90;;;999.90;;
30068;SDS011;16894;49.456;10.644;2023-05-19T06:57:05;1999.90;;;999.90;;
30068;SDS011;16894;49.456;10.644;2023-05-19T06:59:31;1999.90;;;999.90;;
30068;SDS011;16894;49.456;10.644;2023-05-19T07:01:57;1999.90;;;999.90;;
30068;SDS011;16894;49.456;10.644;2023-05-19T07:04:22;1999.90;;;999.90;;
30068;SDS011;16894;49.456;10.644;2023-05-19T07:06:48;1999.90;;;999.90;;
30068;SDS011;16894;49.456;10.644;2023-05-19T07:09:14;1999.90;;;999.90;;
30068;SDS011;16894;49.456;10.644;2023-05-19T07:11:40;1999.90;;;999.90;;
30068;SDS011;16894;49.456;10.644;2023-05-19T07:14:05;1999.90;;;999.90;;
30068;SDS011;16894;49.456;10.644;2023-05-19T07:16:31;1999.90;;;999.90;;
30068;SDS011;16894;49.456;10.644;2023-05-19T07:18:57;1999.90;;;999.90;;
30068;SDS011;16894;49.456;10.644;2023-05-19T07:21:22;1999.90;;;999.90;;
30068;SDS011;16894;49.456;10.644;2023-05-19T07:23:48;1999.90;;;999.90;;
30068;SDS011;16894;49.456;10.644;2023-05-19T07:26:14;1999.90;;;999.90;;
30068;SDS011;16894;49.456;10.644;2023-05-19T07:28:39;1999.90;;;999.90;;
30068;SDS011;16894;49.456;10.644;2023-05-19T07:31:06;1999.90;;;999.90;;
30068;SDS011;16894;49.456;10.644;2023-05-19T07:33:32;1999.90;;;999.90;;
30068;SDS011;16894;49.456;10.644;2023-05-19T07:35:57;1999.90;;;999.90;;
30068;SDS011;16894;49.456;10.644;2023-05-19T07:38:23;1999.90;;;999.90;;
30068;SDS011;16894;49.456;10.644;2023-05-19T07:40:49;1999.90;;;999.90;;
30068;SDS011;16894;49.456;10.644;2023-05-19T07:43:14;1999.90;;;999.90;;
30068;SDS011;16894;49.456;10.644;2023-05-19T07:45:40;1999.90;;;999.90;;
30068;SDS011;16894;49.456;10.644;2023-05-19T07:48:06;1999.90;;;999.90;;
30068;SDS011;16894;49.456;10.644;2023-05-19T07:50:32;1999.90;;;999.90;;
30068;SDS011;16894;49.456;10.644;2023-05-19T07:52:58;1999.90;;;999.90;;
30068;SDS011;16894;49.456;10.644;2023-05-19T07:55:23;1999.90;;;999.90;;
30068;SDS011;16894;49.456;10.644;2023-05-19T07:57:49;1999.90;;;999.90;;
30068;SDS011;16894;49.456;10.644;2023-05-19T08:00:15;1999.90;;;999.90;;
30068;SDS011;16894;49.456;10.644;2023-05-19T08:02:41;1999.90;;;999.90;;
30068;SDS011;16894;49.456;10.644;2023-05-19T08:05:08;1999.90;;;999.90;;
30068;SDS011;16894;49.456;10.644;2023-05-19T08:07:34;1999.90;;;999.90;;
30068;SDS011;16894;49.456;10.644;2023-05-19T08:10:00;1999.90;;;999.90;;
30068;SDS011;16894;49.456;10.644;2023-05-19T08:12:26;1999.90;;;999.90;;
30068;SDS011;16894;49.456;10.644;2023-05-19T08:14:52;1999.90;;;999.90;;
30068;SDS011;16894;49.456;10.644;2023-05-19T08:17:18;1999.90;;;999.90;;
30068;SDS011;16894;49.456;10.644;2023-05-19T08:19:43;1999.90;;;999.90;;
30068;SDS011;16894;49.456;10.644;2023-05-19T08:22:09;1999.90;;;999.90;;
30068;SDS011;16894;49.456;10.644;2023-05-19T08:24:35;1999.90;;;999.90;;
30068;SDS011;16894;49.456;10.644;2023-05-19T08:27:00;1999.90;;;999.90;;
30068;SDS011;16894;49.456;10.644;2023-05-19T08:29:28;1999.90;;;999.90;;
30068;SDS011;16894;49.456;10.644;2023-05-19T08:31:54;1999.90;;;999.90;;
30068;SDS011;16894;49.456;10.644;2023-05-19T08:34:22;1999.90;;;999.90;;
30068;SDS011;16894;49.456;10.644;2023-05-19T08:36:47;1999.90;;;999.90;;
30068;SDS011;16894;49.456;10.644;2023-05-19T08:39:14;1999.90;;;999.90;;
30068;SDS011;16894;49.456;10.644;2023-05-19T08:41:42;1999.90;;;999.90;;
30068;SDS011;16894;49.456;10.644;2023-05-19T08:44:08;1999.90;;;999.90;;
30068;SDS011;16894;49.456;10.644;2023-05-19T08:46:33;1999.90;;;999.90;;
30068;SDS011;16894;49.456;10.644;2023-05-19T08:49:08;1999.90;;;999.90;;
30068;SDS011;16894;49.456;10.644;2023-05-19T08:51:46;1999.90;;;999.90;;
30068;SDS011;16894;49.456;10.644;2023-05-19T08:54:19;1999.90;;;999.90;;
30068;SDS011;16894;49.456;10.644;2023-05-19T08:56:52;1999.90;;;999.90;;
30068;SDS011;16894;49.456;10.644;2023-05-19T08:59:18;1999.90;;;999.90;;
30068;SDS011;16894;49.456;10.644;2023-05-19T09:01:45;1999.90;;;999.90;;
30068;SDS011;16894;49.456;10.644;2023-05-19T09:04:11;1999.90;;;999.90;;
30068;SDS011;16894;49.456;10.644;2023-05-19T09:06:37;1999.90;;;999.90;;
30068;SDS011;16894;49.456;10.644;2023-05-19T09:09:05;1999.90;;;999.90;;
30068;SDS011;16894;49.456;10.644;2023-05-19T09:11:32;1999.90;;;999.90;;
30068;SDS011;16894;49.456;10.644;2023-05-19T09:13:59;1999.90;;;999.90;;
30068;SDS011;16894;49.456;10.644;2023-05-19T09:16:25;1999.90;;;999.90;;
30068;SDS011;16894;49.456;10.644;2023-05-19T09:18:54;1999.90;;;999.90;;
30068;SDS011;16894;49.456;10.644;2023-05-19T09:21:30;1999.90;;;999.90;;
30068;SDS011;16894;49.456;10.644;2023-05-19T09:23:57;1999.90;;;999.90;;
30068;SDS011;16894;49.456;10.644;2023-05-19T09:26:34;1999.90;;;999.90;;
30068;SDS011;16894;49.456;10.644;2023-05-19T09:29:11;1999.90;;;999.90;;
30068;SDS011;16894;49.456;10.644;2023-05-19T09:31:37;1999.90;;;999.90;;
30068;SDS011;16894;49.456;10.644;2023-05-19T09:34:03;1999.90;;;999.90;;
30068;SDS011;16894;49.456;10.644;2023-05-19T09:36:35;1999.90;;;999.90;;
30068;SDS011;16894;49.456;10.644;2023-05-19T09:39:11;1999.90;;;999.90;;
30068;SDS011;16894;49.456;10.644;2023-05-19T09:41:40;1999.90;;;999.90;;
30068;SDS011;16894;49.456;10.644;2023-05-19T09:44:07;1999.90;;;999.90;;
30068;SDS011;16894;49.456;10.644;2023-05-19T09:46:37;1999.90;;;999.90;;
30068;SDS011;16894;49.456;10.644;2023-05-19T09:49:12;1999.90;;;999.90;;
30068;SDS011;16894;49.456;10.644;2023-05-19T09:51:40;1999.90;;;999.90;;
30068;SDS011;16894;49.456;10.644;2023-05-19T09:54:06;1999.90;;;999.90;;
30068;SDS011;16894;49.456;10.644;2023-05-19T09:56:34;1999.90;;;999.90;;
30068;SDS011;16894;49.456;10.644;2023-05-19T09:59:00;1999.90;;;999.90;;
30068;SDS011;16894;49.456;10.644;2023-05-19T10:01:28;1999.90;;;999.90;;
30068;SDS011;16894;49.456;10.644;2023-05-19T10:03:55;1999.90;;;999.90;;
30068;SDS011;16894;49.456;10.644;2023-05-19T10:08:48;1999.90;;;999.90;;
30068;SDS011;16894;49.456;10.644;2023-05-19T10:11:15;1999.90;;;999.90;;
30068;SDS011;16894;49.456;10.644;2023-05-19T10:13:42;1999.90;;;999.90;;
30068;SDS011;16894;49.456;10.644;2023-05-19T10:16:11;1999.90;;;999.90;;
30068;SDS011;16894;49.456;10.644;2023-05-19T10:21:03;1999.90;;;999.90;;
30068;SDS011;16894;49.456;10.644;2023-05-19T10:23:31;1999.90;;;999.90;;
30068;SDS011;16894;49.456;10.644;2023-05-19T10:25:57;1999.90;;;999.90;;
30068;SDS011;16894;49.456;10.644;2023-05-19T10:28:26;1999.90;;;999.90;;
30068;SDS011;16894;49.456;10.644;2023-05-19T10:31:03;1999.90;;;999.90;;
30068;SDS011;16894;49.456;10.644;2023-05-19T10:33:55;1999.90;;;999.90;;
30068;SDS011;16894;49.456;10.644;2023-05-19T10:36:58;1999.90;;;999.90;;
30068;SDS011;16894;49.456;10.644;2023-05-19T10:39:40;1999.90;;;999.90;;
30068;SDS011;16894;49.456;10.644;2023-05-19T10:44:44;1999.90;;;999.90;;
30068;SDS011;16894;49.456;10.644;2023-05-19T10:47:23;1999.90;;;999.90;;
30068;SDS011;16894;49.456;10.644;2023-05-19T10:49:51;1999.90;;;999.90;;
30068;SDS011;16894;49.456;10.644;2023-05-19T10:52:21;1999.90;;;999.90;;
30068;SDS011;16894;49.456;10.644;2023-05-19T10:54:49;1999.90;;;999.90;;
30068;SDS011;16894;49.456;10.644;2023-05-19T10:57:18;1999.90;;;999.90;;
30068;SDS011;16894;49.456;10.644;2023-05-19T10:59:49;1999.90;;;999.90;;
30068;SDS011;16894;49.456;10.644;2023-05-19T11:07:42;1999.90;;;999.90;;
30068;SDS011;16894;49.456;10.644;2023-05-19T11:10:21;1999.90;;;999.90;;
30068;SDS011;16894;49.456;10.644;2023-05-19T11:12:48;1999.90;;;999.90;;
30068;SDS011;16894;49.456;10.644;2023-05-19T11:15:15;1999.90;;;999.90;;
30068;SDS011;16894;49.456;10.644;2023-05-19T11:17:41;1999.90;;;999.90;;
30068;SDS011;16894;49.456;10.644;2023-05-19T11:20:20;1999.90;;;999.90;;
30068;SDS011;16894;49.456;10.644;2023-05-19T11:23:02;1999.90;;;999.90;;
30068;SDS011;16894;49.456;10.644;2023-05-19T11:25:49;1999.90;;;999.90;;
30068;SDS011;16894;49.456;10.644;2023-05-19T11:28:18;1999.90;;;999.90;;
30068;SDS011;16894;49.456;10.644;2023-05-19T11:30:45;1999.90;;;999.90;;
30068;SDS011;16894;49.456;10.644;2023-05-19T11:33:15;1999.90;;;999.90;;
30068;SDS011;16894;49.456;10.644;2023-05-19T11:35:43;1999.90;;;999.90;;
30068;SDS011;16894;49.456;10.644;2023-05-19T11:38:11;1999.90;;;999.90;;
30068;SDS011;16894;49.456;10.644;2023-05-19T11:40:38;1999.90;;;999.90;;
30068;SDS011;16894;49.456;10.644;2023-05-19T11:43:05;1999.90;;;999.90;;
30068;SDS011;16894;49.456;10.644;2023-05-19T11:45:31;1999.90;;;999.90;;
30068;SDS011;16894;49.456;10.644;2023-05-19T11:47:58;1999.90;;;999.90;;
30068;SDS011;16894;49.456;10.644;2023-05-19T11:50:26;1999.90;;;999.90;;
30068;SDS011;16894;49.456;10.644;2023-05-19T11:52:52;1999.90;;;999.90;;
30068;SDS011;16894;49.456;10.644;2023-05-19T11:55:20;1999.90;;;999.90;;
30068;SDS011;16894;49.456;10.644;2023-05-19T11:58:04;1999.90;;;999.90;;
30068;SDS011;16894;49.456;10.644;2023-05-19T12:00:33;1999.90;;;999.90;;
30068;SDS011;16894;49.456;10.644;2023-05-19T12:03:03;1999.90;;;999.90;;
30068;SDS011;16894;49.456;10.644;2023-05-19T12:05:29;1999.90;;;999.90;;
30068;SDS011;16894;49.456;10.644;2023-05-19T12:07:55;1999.90;;;999.90;;
30068;SDS011;16894;49.456;10.644;2023-05-19T12:10:22;1999.90;;;999.90;;
30068;SDS011;16894;49.456;10.644;2023-05-19T12:12:55;1999.90;;;999.90;;
30068;SDS011;16894;49.456;10.644;2023-05-19T12:15:22;1999.90;;;999.90;;
30068;SDS011;16894;49.456;10.644;2023-05-19T12:17:49;1999.90;;;999.90;;
30068;SDS011;16894;49.456;10.644;2023-05-19T12:20:15;1999.90;;;999.90;;
30068;SDS011;16894;49.456;10.644;2023-05-19T12:22:44;1999.90;;;999.90;;
30068;SDS011;16894;49.456;10.644;2023-05-19T12:25:11;1999.90;;;999.90;;
30068;SDS011;16894;49.456;10.644;2023-05-19T12:27:38;1999.90;;;999.90;;
30068;SDS011;16894;49.456;10.644;2023-05-19T12:30:07;1999.90;;;999.90;;
30068;SDS011;16894;49.456;10.644;2023-05-19T12:32:33;1999.90;;;999.90;;
30068;SDS011;16894;49.456;10.644;2023-05-19T12:35:03;1999.90;;;999.90;;
30068;SDS011;16894;49.456;10.644;2023-05-19T12:37:30;1999.90;;;999.90;;
30068;SDS011;16894;49.456;10.644;2023-05-19T12:39:59;1999.90;;;999.90;;
30068;SDS011;16894;49.456;10.644;2023-05-19T12:42:27;1999.90;;;999.90;;
30068;SDS011;16894;49.456;10.644;2023-05-19T12:44:55;1999.90;;;999.90;;
30068;SDS011;16894;49.456;10.644;2023-05-19T12:47:27;1999.90;;;999.90;;
30068;SDS011;16894;49.456;10.644;2023-05-19T12:52:24;1999.90;;;999.90;;
30068;SDS011;16894;49.456;10.644;2023-05-19T12:55:04;1999.90;;;999.90;;
30068;SDS011;16894;49.456;10.644;2023-05-19T12:57:34;1999.90;;;999.90;;
30068;SDS011;16894;49.456;10.644;2023-05-19T13:00:14;1999.90;;;999.90;;
30068;SDS011;16894;49.456;10.644;2023-05-19T13:02:54;1999.90;;;999.90;;
30068;SDS011;16894;49.456;10.644;2023-05-19T13:05:21;1999.90;;;999.90;;
30068;SDS011;16894;49.456;10.644;2023-05-19T13:07:58;1999.90;;;999.90;;
30068;SDS011;16894;49.456;10.644;2023-05-19T13:10:26;1999.90;;;999.90;;
30068;SDS011;16894;49.456;10.644;2023-05-19T13:12:56;1999.90;;;999.90;;
30068;SDS011;16894;49.456;10.644;2023-05-19T13:15:23;1999.90;;;999.90;;
30068;SDS011;16894;49.456;10.644;2023-05-19T13:17:53;1999.90;;;999.90;;
30068;SDS011;16894;49.456;10.644;2023-05-19T13:20:19;1999.90;;;999.90;;
30068;SDS011;16894;49.456;10.644;2023-05-19T13:25:14;1999.90;;;999.90;;
30068;SDS011;16894;49.456;10.644;2023-05-19T13:27:41;1999.90;;;999.90;;
30068;SDS011;16894;49.456;10.644;2023-05-19T13:30:07;1999.90;;;999.90;;
30068;SDS011;16894;49.456;10.644;2023-05-19T13:32:33;399.40;;;374.73;;
30068;SDS011;16894;49.456;10.644;2023-05-19T13:34:59;329.58;;;309.40;;
30068;SDS011;16894;49.456;10.644;2023-05-19T13:37:25;325.60;;;306.00;;
30068;SDS011;16894;49.456;10.644;2023-05-19T13:39:52;93.97;;;88.43;;
30068;SDS011;16894;49.456;10.644;2023-05-19T13:44:46;225.93;;;212.43;;
30068;SDS011;16894;49.456;10.644;2023-05-19T13:47:12;275.40;;;258.90;;
30068;SDS011;16894;49.456;10.644;2023-05-19T13:49:37;423.35;;;396.70;;
30068;SDS011;16894;49.456;10.644;2023-05-19T13:52:03;462.05;;;432.15;;
30068;SDS011;16894;49.456;10.644;2023-05-19T13:54:30;1999.90;;;999.90;;
30068;SDS011;16894;49.456;10.644;2023-05-19T13:56:56;1999.90;;;999.90;;
30068;SDS011;16894;49.456;10.644;2023-05-19T13:59:22;1999.90;;;999.90;;
30068;SDS011;16894;49.456;10.644;2023-05-19T14:01:49;1999.90;;;999.90;;
30068;SDS011;16894;49.456;10.644;2023-05-19T14:04:16;1999.90;;;999.90;;
30068;SDS011;16894;49.456;10.644;2023-05-19T14:06:42;1999.90;;;999.90;;
30068;SDS011;16894;49.456;10.644;2023-05-19T14:09:08;1999.90;;;999.90;;
30068;SDS011;16894;49.456;10.644;2023-05-19T14:11:34;405.48;;;380.10;;
30068;SDS011;16894;49.456;10.644;2023-05-19T14:14:00;321.88;;;302.48;;
30068;SDS011;16894;49.456;10.644;2023-05-19T14:16:27;365.73;;;343.23;;
30068;SDS011;16894;49.456;10.644;2023-05-19T14:18:54;393.33;;;368.98;;
30068;SDS011;16894;49.456;10.644;2023-05-19T14:21:20;376.23;;;353.15;;
30068;SDS011;16894;49.456;10.644;2023-05-19T14:23:46;317.48;;;298.35;;
30068;SDS011;16894;49.456;10.644;2023-05-19T14:26:12;426.83;;;399.48;;
30068;SDS011;16894;49.456;10.644;2023-05-19T14:28:37;468.23;;;437.92;;
30068;SDS011;16894;49.456;10.644;2023-05-19T14:31:03;1999.90;;;999.90;;
30068;SDS011;16894;49.456;10.644;2023-05-19T14:33:30;423.05;;;396.25;;
30068;SDS011;16894;49.456;10.644;2023-05-19T14:35:55;309.05;;;290.65;;
30068;SDS011;16894;49.456;10.644;2023-05-19T14:38:24;83.10;;;78.28;;
30068;SDS011;16894;49.456;10.644;2023-05-19T14:40:50;56.17;;;52.80;;
30068;SDS011;16894;49.456;10.644;2023-05-19T14:45:41;60.95;;;57.35;;